Time;durP1;ratioP1;P1;durP2;ratioP2;P2;SDS_P1;SDS_P2;PMS_P1;PMS_P2;Temp;Humidity;BMP_temperature;BMP_pressure;BME280_temperature;BME280_humidity;BME280_pressure;Samples;Min_cycle;Max_cycle;Signal;HPM_P1;HPM_P2
2022/05/03 00:01:08;;;;;;;1.52;1.42;;;;;;;6.32;100.00;90615.25;5032934;28;20033;-68
2022/05/03 00:03:48;;;;;;;1.55;1.45;;;;;;;6.45;100.00;90623.19;5033042;28;20171;-68
2022/05/03 00:06:30;;;;;;;0.80;0.80;;;;;;;6.34;100.00;90621.81;5033009;28;20033;-68
2022/05/03 00:09:01;;;;;;;1.25;1.25;;;;;;;6.36;100.00;90621.53;5033005;28;20035;-68
2022/05/03 00:11:56;;;;;;;1.30;1.30;;;;;;;6.40;100.00;90617.22;5016656;28;20032;-68
2022/05/03 00:14:44;;;;;;;1.60;1.10;;;;;;;6.37;100.00;90615.16;5014840;28;20032;-68
2022/05/03 00:17:13;;;;;;;1.23;1.17;;;;;;;6.39;100.00;90607.72;5032768;28;20033;-68
2022/05/03 00:19:39;;;;;;;1.05;1.05;;;;;;;6.36;100.00;90609.09;5032653;28;20029;-68
2022/05/03 00:22:05;;;;;;;1.05;0.98;;;;;;;6.29;100.00;90601.53;5032480;28;20036;-68
2022/05/03 00:24:30;;;;;;;1.15;1.15;;;;;;;6.33;100.00;90611.53;5036123;28;20102;-68
2022/05/03 00:27:03;;;;;;;1.00;1.00;;;;;;;6.26;100.00;90617.19;5042056;28;20402;-68
2022/05/03 00:29:29;;;;;;;1.58;1.48;;;;;;;6.43;100.00;90617.41;5014456;28;20025;-68
2022/05/03 00:31:56;;;;;;;0.80;0.80;;;;;;;6.37;100.00;90605.38;5032423;28;20025;-68
2022/05/03 00:34:23;;;;;;;1.25;1.23;;;;;;;6.39;100.00;90605.88;5032027;28;20553;-68
2022/05/03 00:36:48;;;;;;;0.90;0.90;;;;;;;6.52;100.00;90606.97;5013757;28;20029;-69
2022/05/03 00:39:14;;;;;;;0.80;0.80;;;;;;;6.48;100.00;90613.91;5012712;28;20480;-68
2022/05/03 00:41:53;;;;;;;1.75;1.48;;;;;;;6.48;100.00;90614.69;5012640;28;20084;-68
2022/05/03 00:44:56;;;;;;;1.25;1.17;;;;;;;6.42;100.00;90618.47;5012454;28;20028;-68
2022/05/03 00:47:45;;;;;;;0.95;0.95;;;;;;;6.43;100.00;90614.00;4994861;28;20484;-68
2022/05/03 00:50:33;;;;;;;4.00;3.63;;;;;;;6.32;100.00;90615.25;5012458;28;20030;-68
2022/05/03 00:53:09;;;;;;;4.00;3.35;;;;;;;6.34;100.00;90602.53;5012353;28;20036;-68
2022/05/03 00:56:14;;;;;;;3.35;3.05;;;;;;;6.21;100.00;90617.28;5012368;28;20037;-67
2022/05/03 00:58:45;;;;;;;2.22;2.03;;;;;;;6.03;100.00;90618.09;4972558;28;20038;-67
2022/05/03 01:01:44;;;;;;;4.05;3.47;;;;;;;6.06;100.00;90605.09;5012232;28;20030;-67
2022/05/03 01:04:34;;;;;;;3.65;3.05;;;;;;;6.06;100.00;90605.09;5012152;28;20058;-67
2022/05/03 01:07:18;;;;;;;3.85;3.42;;;;;;;6.07;100.00;90611.94;5012169;28;20022;-68
2022/05/03 01:09:54;;;;;;;4.43;3.95;;;;;;;6.04;100.00;90598.53;5012112;28;20018;-68
2022/05/03 01:12:24;;;;;;;4.55;3.10;;;;;;;5.91;100.00;90603.47;5012061;28;20100;-68
2022/05/03 01:14:49;;;;;;;5.72;3.88;;;;;;;5.94;100.00;90604.75;5011829;28;20026;-68
2022/05/03 01:17:25;;;;;;;4.88;3.85;;;;;;;6.00;100.00;90600.97;5011942;28;20025;-67
2022/05/03 01:20:04;;;;;;;2.90;2.70;;;;;;;5.99;100.00;90602.81;5011646;28;20036;-68
2022/05/03 01:23:00;;;;;;;5.78;4.03;;;;;;;5.95;100.00;90603.69;5011868;28;20030;-67
2022/05/03 01:25:44;;;;;;;4.75;4.07;;;;;;;6.04;100.00;90599.31;5011392;28;20508;-67
2022/05/03 01:28:48;;;;;;;3.35;3.05;;;;;;;5.98;100.00;90598.59;5011834;28;20072;-67
2022/05/03 01:31:14;;;;;;;4.43;3.45;;;;;;;5.91;100.00;90592.91;5011882;28;20025;-68
2022/05/03 01:33:45;;;;;;;5.63;3.88;;;;;;;5.95;100.00;90599.19;5011831;28;20092;-67
2022/05/03 01:36:11;;;;;;;5.57;4.18;;;;;;;6.08;100.00;90599.53;5011679;28;20083;-68
2022/05/03 01:38:36;;;;;;;5.50;3.70;;;;;;;5.99;100.00;90604.66;5011649;28;20469;-68
2022/05/03 01:41:16;;;;;;;5.90;4.07;;;;;;;6.03;100.00;90596.97;5011052;28;20037;-67
2022/05/03 01:44:07;;;;;;;4.57;3.97;;;;;;;6.10;100.00;90589.44;4994026;28;20538;-67
2022/05/03 01:46:38;;;;;;;5.90;4.03;;;;;;;6.27;100.00;90594.97;5003347;28;20120;-68
2022/05/03 01:52:49;;;;;;;6.35;4.05;;;;;;;6.43;100.00;90585.69;5011544;28;20040;-67
2022/05/03 01:55:35;;;;;;;7.72;4.55;;;;;;;6.34;100.00;90594.59;5011299;28;20030;-67
2022/05/03 01:58:28;;;;;;;5.85;4.18;;;;;;;6.30;100.00;90583.81;4993759;28;20089;-68
2022/05/03 02:01:11;;;;;;;5.63;4.15;;;;;;;6.20;100.00;90589.28;5011315;28;20029;-68
2022/05/03 02:03:48;;;;;;;6.07;4.32;;;;;;;6.33;100.00;90587.75;5011332;28;20121;-68
2022/05/03 02:06:15;;;;;;;8.40;5.45;;;;;;;6.27;100.00;90595.75;5011232;28;20062;-68
2022/05/03 02:08:46;;;;;;;6.85;4.85;;;;;;;6.30;100.00;90586.47;5011255;28;20040;-68
2022/05/03 02:11:40;;;;;;;6.05;4.22;;;;;;;6.25;100.00;90582.06;5011333;28;20088;-68
2022/05/03 02:17:12;;;;;;;6.45;4.18;;;;;;;6.22;100.00;90592.44;5011252;28;20076;-68
2022/05/03 02:19:44;;;;;;;6.47;4.53;;;;;;;6.21;100.00;90588.22;5011244;28;20135;-68
2022/05/03 02:22:37;;;;;;;6.85;4.85;;;;;;;6.15;100.00;90590.13;4995143;28;20491;-67
2022/05/03 02:25:26;;;;;;;5.40;4.60;;;;;;;6.18;100.00;90584.31;5011304;28;20046;-68
2022/05/03 02:28:34;;;;;;;5.75;4.40;;;;;;;6.10;100.00;90584.94;5011146;28;20124;-68
2022/05/03 02:31:03;;;;;;;6.10;4.53;;;;;;;6.06;100.00;90588.47;5011045;28;20026;-67
2022/05/03 02:33:33;;;;;;;7.28;4.90;;;;;;;6.07;100.00;90579.47;5011132;28;20502;-67
2022/05/03 02:35:59;;;;;;;5.80;4.65;;;;;;;6.10;100.00;90581.53;5011046;28;20506;-67
2022/05/03 02:38:52;;;;;;;7.50;4.72;;;;;;;6.24;100.00;90588.41;5011005;28;20411;-68
2022/05/03 02:41:20;;;;;;;7.03;5.28;;;;;;;6.34;100.00;90576.13;5011095;28;20034;-67
2022/05/03 02:43:47;;;;;;;8.65;4.75;;;;;;;6.28;100.00;90573.53;5011113;28;20048;-68
2022/05/03 02:46:44;;;;;;;5.05;3.90;;;;;;;6.30;100.00;90574.03;4997817;28;20033;-68
2022/05/03 02:49:28;;;;;;;6.07;5.10;;;;;;;6.24;100.00;90575.22;5032013;28;20537;-68
2022/05/03 02:52:21;;;;;;;5.85;4.28;;;;;;;6.19;100.00;90579.81;5049308;28;20037;-68
2022/05/03 02:55:19;;;;;;;5.93;4.85;;;;;;;6.19;100.00;90572.66;5054364;28;20108;-68
2022/05/03 02:57:55;;;;;;;7.30;4.32;;;;;;;6.27;100.00;90569.34;5014581;28;20029;-67
2022/05/03 03:03:24;;;;;;;9.95;4.60;;;;;;;6.09;100.00;90578.09;5027408;28;20075;-67
2022/05/03 03:05:57;;;;;;;9.38;5.80;;;;;;;6.08;100.00;90576.53;5016170;28;20026;-67
2022/05/03 03:08:23;;;;;;;;;;;;;;;6.11;100.00;90583.88;5034597;28;20048;-67
2022/05/03 03:11:02;;;;;;;4.90;4.30;;;;;;;6.10;100.00;90579.66;5034115;28;19913;-67
2022/05/03 03:13:49;;;;;;;6.10;4.03;;;;;;;6.07;100.00;90580.25;5033988;28;20079;-68
2022/05/03 03:16:35;;;;;;;5.85;4.20;;;;;;;6.07;100.00;90587.41;5033858;28;20025;-68
2022/05/03 03:19:28;;;;;;;5.97;4.00;;;;;;;6.06;100.00;90583.97;5034026;28;20536;-68
2022/05/03 03:21:55;;;;;;;6.80;4.30;;;;;;;6.10;100.00;90586.81;5032140;28;20033;-68
2022/05/03 03:24:22;;;;;;;6.63;4.30;;;;;;;6.09;100.00;90583.38;5022697;28;20745;-67
2022/05/03 03:26:50;;;;;;;6.20;4.30;;;;;;;5.99;100.00;90586.97;5021572;28;20022;-68
2022/05/03 03:29:18;;;;;;;6.63;4.35;;;;;;;6.00;100.00;90575.34;5005006;28;20029;-68
2022/05/03 03:31:46;;;;;;;6.13;3.90;;;;;;;6.09;100.00;90593.94;5007119;28;20031;-68
2022/05/03 03:34:13;;;;;;;8.25;4.47;;;;;;;6.05;100.00;90594.81;5025529;28;20080;-67
2022/05/03 03:36:41;;;;;;;4.00;3.20;;;;;;;6.01;100.00;90591.97;5033612;28;20029;-68
2022/05/03 03:39:07;;;;;;;6.85;4.03;;;;;;;6.00;100.00;90596.47;5015745;28;20096;-68
2022/05/03 03:41:33;;;;;;;5.53;3.72;;;;;;;5.94;100.00;90586.28;5010561;28;20034;-68
2022/05/03 03:43:58;;;;;;;5.72;3.60;;;;;;;5.98;100.00;90593.31;5013503;28;20418;-68
2022/05/03 03:46:24;;;;;;;4.90;3.72;;;;;;;6.11;100.00;90594.44;5013455;28;20108;-69
2022/05/03 03:48:49;;;;;;;4.72;3.83;;;;;;;6.05;100.00;90592.97;5013458;28;20026;-69
2022/05/03 03:51:15;;;;;;;4.20;3.75;;;;;;;6.08;100.00;90597.66;5013482;28;20099;-69
2022/05/03 03:53:41;;;;;;;5.25;3.75;;;;;;;6.08;100.00;90608.22;5012895;28;20033;-68
2022/05/03 03:56:07;;;;;;;5.20;3.85;;;;;;;5.99;100.00;90599.38;4995567;28;20037;-68
2022/05/03 03:58:33;;;;;;;4.50;3.22;;;;;;;5.85;100.00;90590.63;5013250;28;20034;-68
2022/05/03 04:00:59;;;;;;;5.50;3.72;;;;;;;6.03;100.00;90602.25;5013187;28;20034;-68
2022/05/03 04:03:26;;;;;;;4.57;3.58;;;;;;;6.08;100.00;90612.72;5012920;28;20029;-68
2022/05/03 04:05:51;;;;;;;6.70;4.28;;;;;;;6.10;100.00;90611.34;5012762;28;20030;-68
2022/05/03 04:08:17;;;;;;;5.18;4.10;;;;;;;6.00;100.00;90614.97;5012617;28;20116;-68
2022/05/03 04:10:43;;;;;;;6.35;3.80;;;;;;;5.89;100.00;90608.22;5013084;28;20025;-67
2022/05/03 04:13:13;;;;;;;7.20;4.50;;;;;;;6.00;100.00;90616.81;5012671;28;20083;-68
2022/05/03 04:15:39;;;;;;;6.63;4.05;;;;;;;6.03;100.00;90612.81;5012764;28;20030;-67
2022/05/03 04:18:07;;;;;;;4.60;3.85;;;;;;;6.00;100.00;90614.19;5012964;28;20040;-68
2022/05/03 04:20:33;;;;;;;5.05;3.80;;;;;;;5.98;100.00;90616.28;5012671;28;20105;-67
2022/05/03 04:22:59;;;;;;;5.90;4.40;;;;;;;6.00;100.00;90617.59;5012305;28;20033;-68
2022/05/03 04:25:24;;;;;;;4.45;3.45;;;;;;;5.88;100.00;90624.38;5012500;28;20049;-68
2022/05/03 04:27:49;;;;;;;5.40;4.45;;;;;;;5.93;100.00;90617.16;5012656;28;20026;-68
2022/05/03 04:30:15;;;;;;;4.07;3.50;;;;;;;5.85;100.00;90617.81;5012683;28;20054;-68
2022/05/03 04:32:40;;;;;;;6.03;4.00;;;;;;;5.75;100.00;90617.16;5013587;28;20034;-67
2022/05/03 04:35:06;;;;;;;6.50;4.30;;;;;;;5.90;100.00;90616.97;5013686;28;20065;-68
2022/05/03 04:37:32;;;;;;;2.75;2.55;;;;;;;5.79;100.00;90626.06;5012349;28;20029;-68
2022/05/03 04:39:59;;;;;;;4.15;3.42;;;;;;;5.63;100.00;90617.59;5012580;28;20496;-68
2022/05/03 04:42:24;;;;;;;3.58;3.00;;;;;;;5.70;100.00;90616.19;5012450;28;20096;-69
2022/05/03 04:44:49;;;;;;;3.72;2.97;;;;;;;5.72;100.00;90624.59;5012409;28;20477;-69
2022/05/03 04:47:15;;;;;;;3.63;2.97;;;;;;;5.78;100.00;90624.50;5012555;28;20029;-69
2022/05/03 04:49:52;;;;;;;6.97;2.95;;;;;;;5.69;100.00;90633.09;5012578;28;20029;-69
2022/05/03 04:52:17;;;;;;;3.88;3.45;;;;;;;5.79;100.00;90634.00;5012372;28;20487;-69
2022/05/03 04:54:43;;;;;;;4.88;3.10;;;;;;;5.81;100.00;90634.47;5012332;28;20036;-69
2022/05/03 04:57:09;;;;;;;4.35;3.63;;;;;;;5.65;100.00;90636.56;5012382;28;20026;-67
2022/05/03 04:59:36;;;;;;;3.20;2.85;;;;;;;5.72;100.00;90631.72;5011950;28;20389;-67
2022/05/03 05:02:01;;;;;;;2.42;2.22;;;;;;;5.64;100.00;90633.13;5012000;28;20403;-68
2022/05/03 05:04:27;;;;;;;3.10;2.80;;;;;;;5.68;100.00;90623.59;5012133;28;20030;-68
2022/05/03 05:06:52;;;;;;;3.70;3.25;;;;;;;5.68;100.00;90620.97;5012162;28;20096;-68
2022/05/03 05:09:18;;;;;;;2.53;2.33;;;;;;;5.68;100.00;90630.69;5012152;28;20026;-68
2022/05/03 05:11:43;;;;;;;3.33;2.80;;;;;;;5.78;100.00;90633.22;4994462;28;20029;-67
2022/05/03 05:14:09;;;;;;;5.43;2.55;;;;;;;5.90;100.00;90636.22;5012070;28;20026;-68
2022/05/03 05:16:34;;;;;;;3.78;3.42;;;;;;;6.23;100.00;90634.38;5011261;28;20045;-68
2022/05/03 05:19:00;;;;;;;3.13;2.85;;;;;;;6.43;100.00;90632.47;5012278;28;20025;-68
2022/05/03 05:21:25;;;;;;;3.25;2.95;;;;;;;6.69;100.00;90623.03;5012029;28;20124;-68
2022/05/03 05:23:51;;;;;;;4.20;3.42;;;;;;;6.98;100.00;90629.94;5011971;28;20026;-68
2022/05/03 05:26:16;;;;;;;2.30;2.10;;;;;;;6.89;100.00;90622.66;5011741;28;20168;-68
2022/05/03 05:28:41;;;;;;;3.25;2.95;;;;;;;7.08;100.00;90619.13;5011938;28;20022;-68
2022/05/03 05:31:08;;;;;;;2.45;2.25;;;;;;;7.25;100.00;90629.91;5011933;28;20522;-67
2022/05/03 05:33:33;;;;;;;4.45;2.80;;;;;;;7.37;100.00;90624.09;5011938;28;20032;-67
2022/05/03 05:35:58;;;;;;;3.10;2.78;;;;;;;7.71;100.00;90624.44;5011718;28;20030;-68
2022/05/03 05:38:24;;;;;;;3.10;2.80;;;;;;;7.86;100.00;90627.84;5011501;28;20030;-68
2022/05/03 05:40:52;;;;;;;3.35;2.80;;;;;;;7.84;100.00;90628.13;5011447;28;20030;-69
2022/05/03 05:43:17;;;;;;;3.47;2.53;;;;;;;7.82;100.00;90627.66;5011498;28;20113;-68
2022/05/03 05:45:43;;;;;;;3.75;3.20;;;;;;;8.38;100.00;90635.13;5010952;28;20109;-68
2022/05/03 05:48:09;;;;;;;3.05;1.70;;;;;;;7.85;100.00;90621.75;5011517;28;20034;-68
2022/05/03 05:50:35;;;;;;;3.67;2.85;;;;;;;7.84;100.00;90636.06;5011553;28;20488;-69
2022/05/03 05:55:45;;;;;;;2.42;2.22;;;;;;;7.96;100.00;90631.03;5011414;28;20080;-68
2022/05/03 05:58:10;;;;;;;4.20;2.50;;;;;;;7.62;100.00;90636.03;4993744;28;20482;-68
2022/05/03 06:00:36;;;;;;;2.65;2.45;;;;;;;7.71;100.00;90635.03;5011356;28;20037;-66
2022/05/03 06:03:01;;;;;;;3.03;2.72;;;;;;;7.40;100.00;90640.16;5011479;28;20022;-66
2022/05/03 06:05:28;;;;;;;4.10;3.67;;;;;;;7.21;100.00;90645.59;5011232;28;20042;-67
2022/05/03 06:07:53;;;;;;;2.90;2.70;;;;;;;7.29;100.00;90646.78;5011332;28;20064;-68
2022/05/03 06:10:20;;;;;;;3.40;2.80;;;;;;;7.30;100.00;90647.56;5011251;28;20021;-68
2022/05/03 06:12:47;;;;;;;5.05;2.60;;;;;;;7.58;100.00;90650.97;5011352;28;20034;-67
2022/05/03 06:15:12;;;;;;;2.95;2.53;;;;;;;7.64;100.00;90647.91;5011294;28;20029;-67
2022/05/03 06:17:40;;;;;;;3.97;3.22;;;;;;;7.54;100.00;90642.81;5011253;28;20024;-66
2022/05/03 06:20:06;;;;;;;3.15;2.72;;;;;;;7.69;100.00;90649.66;5011322;28;20037;-67
2022/05/03 06:22:31;;;;;;;3.70;3.28;;;;;;;7.61;100.00;90643.22;5011085;28;20026;-68
2022/05/03 06:24:57;;;;;;;2.45;2.05;;;;;;;7.40;100.00;90648.13;5010943;28;20539;-67
2022/05/03 06:27:22;;;;;;;3.28;2.97;;;;;;;7.53;100.00;90646.53;5012629;28;20030;-67
2022/05/03 06:29:48;;;;;;;3.58;2.67;;;;;;;7.89;100.00;90656.34;5015190;28;20047;-66
2022/05/03 06:32:13;;;;;;;3.20;2.90;;;;;;;8.13;100.00;90656.88;5014984;28;20076;-67
2022/05/03 06:34:39;;;;;;;4.03;2.40;;;;;;;7.67;100.00;90657.88;5014668;28;20546;-67
2022/05/03 06:37:05;;;;;;;6.10;3.35;;;;;;;7.53;100.00;90662.41;5014888;28;20096;-67
2022/05/03 06:39:31;;;;;;;2.83;2.47;;;;;;;7.68;100.00;90658.66;4997045;28;20494;-67
2022/05/03 06:41:56;;;;;;;3.67;2.75;;;;;;;7.57;100.00;90662.59;5014780;28;20029;-65
2022/05/03 06:44:22;;;;;;;5.47;3.55;;;;;;;7.58;100.00;90664.97;5014792;28;20054;-64
2022/05/03 06:46:49;;;;;;;4.03;3.55;;;;;;;7.59;100.00;90671.06;5015176;28;20030;-64
2022/05/03 06:49:15;;;;;;;3.72;3.30;;;;;;;7.90;100.00;90664.03;5015601;28;20037;-65
2022/05/03 06:51:40;;;;;;;3.88;3.13;;;;;;;8.08;100.00;90671.03;5015009;28;20029;-64
2022/05/03 06:54:06;;;;;;;4.15;2.90;;;;;;;8.23;100.00;90667.25;5014596;28;20415;-64
2022/05/03 06:56:35;;;;;;;4.50;2.85;;;;;;;8.19;100.00;90668.16;5014584;28;20018;-64
2022/05/03 06:59:06;;;;;;;4.68;3.63;;;;;;;8.57;100.00;90679.22;5014811;28;20408;-64
2022/05/03 07:01:31;;;;;;;4.60;3.20;;;;;;;8.88;100.00;90679.25;5014321;28;20064;-65
2022/05/03 07:03:57;;;;;;;4.88;3.15;;;;;;;8.70;100.00;90667.78;5010564;28;20073;-65
2022/05/03 07:06:22;;;;;;;3.67;3.03;;;;;;;8.85;100.00;90656.78;5014219;28;20068;-66
2022/05/03 07:08:48;;;;;;;3.58;3.05;;;;;;;8.99;100.00;90683.19;4996634;28;20064;-64
2022/05/03 07:11:17;;;;;;;3.08;2.78;;;;;;;9.23;100.00;90674.91;5013810;28;20546;-66
2022/05/03 07:13:43;;;;;;;4.95;3.63;;;;;;;9.63;100.00;90666.94;5014025;28;20030;-65
2022/05/03 07:16:09;;;;;;;2.67;2.38;;;;;;;9.81;100.00;90674.63;5014198;28;20033;-65
2022/05/03 07:24:03;;;;;;;2.42;2.22;;;;;;;8.59;100.00;90675.19;5014037;28;20037;-66
2022/05/03 07:26:28;;;;;;;3.60;2.45;;;;;;;8.24;100.00;90663.53;5013443;28;20033;-66
2022/05/03 07:28:54;;;;;;;3.40;3.10;;;;;;;8.36;100.00;90685.03;5013767;28;20412;-67
2022/05/03 07:31:20;;;;;;;2.38;2.17;;;;;;;7.90;100.00;90682.56;5013719;28;20381;-66
2022/05/03 07:33:47;;;;;;;3.50;2.83;;;;;;;7.90;100.00;90681.78;4995898;28;20064;-65
2022/05/03 07:36:13;;;;;;;2.10;2.00;;;;;;;7.21;100.00;90676.53;5013655;28;20026;-73
2022/05/03 07:38:40;;;;;;;2.83;2.60;;;;;;;7.41;100.00;90694.66;5012442;28;20029;-73
2022/05/03 07:41:06;;;;;;;3.53;2.58;;;;;;;7.62;100.00;90691.63;5013042;28;20080;-74
2022/05/03 07:43:32;;;;;;;3.08;2.58;;;;;;;7.82;100.00;90691.22;5013441;28;20030;-72
2022/05/03 07:45:58;;;;;;;5.47;3.65;;;;;;;8.81;100.00;90690.28;5013261;28;20136;-74
2022/05/03 07:48:23;;;;;;;1.90;1.80;;;;;;;9.11;100.00;90699.34;5013353;28;20030;-74
2022/05/03 07:50:49;;;;;;;3.03;2.25;;;;;;;9.07;100.00;90690.44;4995734;28;20032;-74
2022/05/03 07:53:14;;;;;;;1.98;1.77;;;;;;;9.04;100.00;90679.66;5013158;28;20041;-75
2022/05/03 07:55:40;;;;;;;3.10;2.65;;;;;;;9.54;100.00;90690.78;5012876;28;20026;-75
2022/05/03 07:58:05;;;;;;;2.85;2.20;;;;;;;9.63;100.00;90694.28;4995106;28;20096;-74
2022/05/03 08:00:31;;;;;;;2.25;2.00;;;;;;;10.36;100.00;90687.38;5013005;28;20026;-73
2022/05/03 08:02:57;;;;;;;4.38;2.55;;;;;;;10.08;100.00;90675.44;5013100;28;20108;-73
2022/05/03 08:05:23;;;;;;;1.67;1.58;;;;;;;9.65;100.00;90689.44;5012792;28;20042;-76
2022/05/03 08:07:49;;;;;;;1.70;1.60;;;;;;;8.93;100.00;90703.00;5013134;28;20081;-74
2022/05/03 08:10:15;;;;;;;1.90;1.65;;;;;;;9.40;100.00;90692.78;5012521;28;20026;-76
2022/05/03 08:12:40;;;;;;;2.75;2.30;;;;;;;9.37;100.00;90685.44;5013051;28;20041;-74
2022/05/03 08:15:06;;;;;;;2.40;2.20;;;;;;;10.49;100.00;90689.09;5013207;28;20112;-74
2022/05/03 08:17:32;;;;;;;2.10;1.90;;;;;;;11.30;100.00;90699.00;5012904;28;20022;-75
2022/05/03 08:19:58;;;;;;;3.58;2.80;;;;;;;11.76;100.00;90697.41;5012812;28;20108;-75
2022/05/03 08:22:25;;;;;;;3.22;2.20;;;;;;;11.36;100.00;90692.41;5012752;28;20029;-75
2022/05/03 08:24:51;;;;;;;3.38;2.35;;;;;;;11.45;100.00;90686.25;5011813;28;20042;-75
2022/05/03 08:27:17;;;;;;;1.98;1.80;;;;;;;11.07;100.00;90708.31;4995550;28;20026;-76
2022/05/03 08:29:43;;;;;;;6.90;2.65;;;;;;;11.95;100.00;90705.81;5012782;28;20033;-73
2022/05/03 08:32:09;;;;;;;2.83;2.55;;;;;;;11.78;100.00;90711.19;5013178;28;20065;-74
2022/05/03 08:34:35;;;;;;;3.53;3.22;;;;;;;12.42;100.00;90699.56;5012609;28;20036;-72
2022/05/03 08:42:29;;;;;;;3.00;2.20;;;;;;;13.11;91.79;90712.38;5012379;28;20087;-71
2022/05/03 08:44:56;;;;;;;3.65;2.70;;;;;;;12.51;88.96;90705.63;5012050;28;20026;-71
2022/05/03 08:47:25;;;;;;;2.58;2.20;;;;;;;12.12;91.30;90704.16;5012397;28;20101;-69
2022/05/03 08:50:07;;;;;;;2.08;1.90;;;;;;;13.12;88.21;90713.94;5012067;28;20026;-70
2022/05/03 08:52:49;;;;;;;4.00;2.35;;;;;;;14.26;79.33;90717.69;5012143;28;20084;-69
2022/05/03 08:55:15;;;;;;;4.95;1.63;;;;;;;13.46;72.73;90726.97;5011664;28;20109;-72
2022/05/03 08:57:44;;;;;;;1.55;1.45;;;;;;;12.62;78.30;90711.34;5012187;28;20129;-70
2022/05/03 09:00:12;;;;;;;2.78;2.47;;;;;;;12.68;88.36;90707.41;5012085;28;20025;-70
2022/05/03 09:02:42;;;;;;;7.55;4.50;;;;;;;12.65;93.00;90716.06;4994405;28;20022;-69
2022/05/03 09:05:11;;;;;;;5.50;3.85;;;;;;;12.65;90.30;90706.16;5011923;28;20026;-68
2022/05/03 09:07:37;;;;;;;5.78;3.65;;;;;;;12.87;89.69;90719.16;5012871;28;20057;-69
2022/05/03 09:10:32;;;;;;;5.85;3.78;;;;;;;12.26;90.36;90726.81;5012906;28;20054;-69
2022/05/03 09:13:25;;;;;;;5.75;3.03;;;;;;;12.64;88.83;90723.28;5011698;28;20167;-71
2022/05/03 09:15:56;;;;;;;1.73;1.20;;;;;;;11.03;87.25;90713.47;5009271;28;20092;-71
2022/05/03 09:18:28;;;;;;;5.40;2.63;;;;;;;11.05;95.46;90708.63;5011671;28;20037;-70
2022/05/03 09:23:47;;;;;;;1.52;1.42;;;;;;;11.68;87.90;90722.22;5011380;28;20120;-70
2022/05/03 09:26:26;;;;;;;2.15;1.95;;;;;;;11.83;89.22;90723.59;5011577;28;20073;-69
2022/05/03 09:28:53;;;;;;;2.78;1.80;;;;;;;10.57;93.77;90730.06;5011393;28;20495;-71
2022/05/03 09:31:30;;;;;;;1.65;1.55;;;;;;;10.77;95.35;90723.38;5011351;28;20030;-70
2022/05/03 09:33:57;;;;;;;1.35;1.25;;;;;;;10.10;96.23;90715.78;5011295;28;20032;-71
2022/05/03 09:36:23;;;;;;;1.55;1.45;;;;;;;10.10;100.00;90729.09;5011268;28;20068;-71
2022/05/03 09:38:51;;;;;;;0.95;0.95;;;;;;;9.17;100.00;90723.91;5010932;28;20083;-70
2022/05/03 09:41:17;;;;;;;2.17;1.80;;;;;;;9.17;100.00;90734.53;5011094;28;20522;-72
2022/05/03 09:44:08;;;;;;;2.20;1.63;;;;;;;9.08;100.00;90741.63;5011228;28;20022;-70
2022/05/03 09:46:53;;;;;;;2.08;1.80;;;;;;;9.20;100.00;90736.56;5011316;28;20026;-69
2022/05/03 09:49:32;;;;;;;2.05;1.30;;;;;;;9.17;100.00;90735.31;5011200;28;20443;-70
2022/05/03 09:51:58;;;;;;;1.70;1.60;;;;;;;8.76;100.00;90730.19;5011073;28;20025;-69
2022/05/03 09:54:24;;;;;;;5.22;3.42;;;;;;;9.62;100.00;90729.84;5010641;28;20018;-69
2022/05/03 09:56:52;;;;;;;2.70;2.05;;;;;;;9.90;100.00;90733.88;5010970;28;20060;-69
2022/05/03 09:59:19;;;;;;;1.85;1.58;;;;;;;8.88;100.00;90719.06;5010984;28;20028;-70
2022/05/03 10:01:45;;;;;;;13.68;7.53;;;;;;;9.12;100.00;90724.00;5010260;28;20405;-69
2022/05/03 10:04:12;;;;;;;1.83;1.50;;;;;;;10.00;100.00;90724.84;5010677;28;20026;-69
2022/05/03 10:06:38;;;;;;;1.67;1.48;;;;;;;10.21;100.00;90730.38;5010904;28;20519;-70
2022/05/03 10:09:04;;;;;;;1.02;1.02;;;;;;;9.65;100.00;90731.16;5010347;28;20050;-69
2022/05/03 10:11:32;;;;;;;1.40;1.30;;;;;;;9.55;100.00;90724.22;5010907;28;20029;-68
2022/05/03 10:13:57;;;;;;;1.85;1.60;;;;;;;10.28;100.00;90722.72;5010928;28;20087;-68
2022/05/03 10:22:00;;;;;;;1.98;1.70;;;;;;;9.89;100.00;90724.34;5010764;28;20089;-71
2022/05/03 10:24:31;;;;;;;2.10;1.90;;;;;;;9.57;100.00;90716.72;5010283;28;20086;-69
2022/05/03 10:27:02;;;;;;;3.65;2.33;;;;;;;10.44;100.00;90712.41;5010838;28;20491;-70
2022/05/03 10:29:32;;;;;;;4.88;1.60;;;;;;;12.60;97.58;90719.69;5011237;28;20057;-68
2022/05/03 10:32:07;;;;;;;1.85;1.52;;;;;;;14.78;73.66;90714.28;5010744;28;20037;-68
2022/05/03 10:34:42;;;;;;;2.88;1.27;;;;;;;14.28;68.46;90718.91;5010451;28;20431;-68
2022/05/03 10:37:08;;;;;;;1.20;1.20;;;;;;;15.21;65.29;90713.59;5010547;28;20030;-68
2022/05/03 10:39:33;;;;;;;1.88;1.40;;;;;;;13.43;68.16;90724.19;5010240;28;20088;-69
2022/05/03 10:42:02;;;;;;;7.93;4.22;;;;;;;13.02;71.21;90712.44;5010447;28;20032;-68
2022/05/03 10:44:55;;;;;;;2.75;2.22;;;;;;;13.37;72.85;90715.59;5010466;28;20481;-69
2022/05/03 10:47:54;;;;;;;2.03;1.83;;;;;;;13.17;72.81;90711.84;5010580;28;20105;-68
2022/05/03 10:50:29;;;;;;;3.30;2.40;;;;;;;11.90;81.47;90718.56;5010645;28;20102;-70
2022/05/03 10:53:00;;;;;;;2.00;1.77;;;;;;;11.15;92.76;90720.81;5010131;28;20034;-68
2022/05/03 10:55:35;;;;;;;1.88;1.73;;;;;;;11.47;98.23;90716.03;5010480;28;20034;-67
2022/05/03 10:58:23;;;;;;;2.20;2.00;;;;;;;11.44;90.25;90709.47;5010766;28;20084;-67
2022/05/03 11:01:07;;;;;;;2.20;1.98;;;;;;;10.66;93.61;90716.78;5010561;28;20034;-69
2022/05/03 11:03:35;;;;;;;1.92;1.77;;;;;;;10.67;99.09;90719.13;5010633;28;20030;-67
2022/05/03 11:06:18;;;;;;;2.00;1.80;;;;;;;11.42;90.31;90727.63;4993039;28;20038;-67
2022/05/03 11:09:05;;;;;;;;;;;;;;;12.99;81.01;90723.78;5010490;28;20028;-67
2022/05/03 11:11:39;;;;;;;26.50;7.32;;;;;;;13.70;75.66;90723.56;5010530;28;19948;-68
2022/05/03 11:16:43;;;;;;;1.88;1.77;;;;;;;13.82;66.27;90720.13;5014288;28;20038;-67
2022/05/03 11:19:10;;;;;;;3.08;1.75;;;;;;;14.13;69.91;90713.47;5014020;28;20030;-67
2022/05/03 11:21:36;;;;;;;2.45;1.85;;;;;;;13.93;70.90;90705.22;5013844;28;20030;-67
2022/05/03 11:24:02;;;;;;;5.57;1.90;;;;;;;13.98;71.23;90704.97;5013240;28;20463;-68
2022/05/03 11:26:28;;;;;;;2.47;1.85;;;;;;;13.46;71.95;90713.63;5013851;28;20069;-67
2022/05/03 11:28:57;;;;;;;1.67;1.58;;;;;;;13.87;70.39;90700.41;5013954;28;20542;-67
2022/05/03 11:31:27;;;;;;;1.80;1.70;;;;;;;15.72;62.11;90709.22;5014101;28;20037;-66
2022/05/03 11:33:54;;;;;;;3.80;1.85;;;;;;;15.21;62.32;90700.97;5014172;28;20518;-66
2022/05/03 11:36:20;;;;;;;1.88;1.42;;;;;;;13.58;65.93;90698.72;4996263;28;20168;-66
2022/05/03 11:38:53;;;;;;;2.25;1.90;;;;;;;12.54;72.06;90700.44;4995741;28;20537;-66
2022/05/03 11:41:20;;;;;;;1.75;1.65;;;;;;;11.95;78.23;90700.47;5013290;28;20419;-66
2022/05/03 11:43:47;;;;;;;2.05;1.92;;;;;;;11.38;85.74;90708.06;5013657;28;20037;-67
2022/05/03 11:46:16;;;;;;;3.63;3.15;;;;;;;11.36;90.31;90700.41;5013545;28;20064;-67
2022/05/03 11:48:42;;;;;;;3.40;3.10;;;;;;;12.10;83.38;90711.69;5013435;28;20037;-67
2022/05/03 11:56:45;;;;;;;2.50;2.20;;;;;;;11.70;82.13;90698.72;5013547;28;20045;-67
2022/05/03 11:59:11;;;;;;;1.90;1.80;;;;;;;11.64;80.74;90695.41;5012833;28;20052;-68
2022/05/03 12:01:36;;;;;;;1.85;1.73;;;;;;;11.67;84.71;90686.78;5013292;28;20480;-67
2022/05/03 12:04:04;;;;;;;2.88;2.22;;;;;;;12.50;81.17;90696.06;5013200;28;20038;-67
2022/05/03 12:06:43;;;;;;;2.78;2.17;;;;;;;12.33;75.38;90696.19;5013142;28;20042;-67
2022/05/03 12:09:35;;;;;;;1.70;1.60;;;;;;;10.84;87.22;90691.72;4994981;28;20065;-67
2022/05/03 12:14:45;;;;;;;2.78;2.25;;;;;;;10.23;95.37;90688.31;5012936;28;20044;-67
2022/05/03 12:17:11;;;;;;;2.38;2.17;;;;;;;10.59;93.24;90687.25;5012827;28;20033;-67
2022/05/03 12:19:38;;;;;;;2.72;2.17;;;;;;;10.78;89.50;90685.81;5012866;28;20050;-66
2022/05/03 12:22:12;;;;;;;3.63;2.45;;;;;;;11.13;84.60;90684.94;5012377;28;20045;-67
2022/05/03 12:24:38;;;;;;;2.40;2.20;;;;;;;11.56;82.05;90682.94;5012077;28;20089;-67
2022/05/03 12:27:15;;;;;;;2.00;1.90;;;;;;;12.21;76.15;90676.34;5012764;28;20496;-67
2022/05/03 12:29:48;;;;;;;2.35;2.15;;;;;;;11.82;77.32;90679.38;5012724;28;20084;-68
2022/05/03 12:32:14;;;;;;;;;;;;;;;11.78;78.94;90689.09;5013274;28;20037;-68
2022/05/03 12:34:42;;;;;;;3.20;2.55;;;;;;;11.03;85.27;90697.47;5012608;28;19920;-68